Latest Weather Observations for Dalby

IDQ60801

Issued at 8:02 am EST Friday 22 January 2021 (issued every 10 minutes, with the page automatically refreshed every 10 minutes)

About weather observations | Map of weather stations | Latest weather observations for QLD | Other Formats
Station Details ID: 041522 Name: DALBY AIRPORT Lat: -27.16 Lon: 151.26 Height: 343.9 m
Data from the previous 72 hours. | See also: Recent months at Dalby
Date/Time
EST
Temp
°C
App
Temp
°C
Dew
Point
°C
Rel
Hum
%
Delta-T
°C
Wind Press
QNH
hPa
Press
MSL
hPa
Rain since
9am
mm
Dir  Spd
km/h
Gust
km/h
Spd
kts
Gust
kts
22/08:00am 20.4 20.1 14.3 68 3.6 WSW 9 13 5 7 1016.4 1014.3 -
22/07:30am 19.7 19.4 14.3 71 3.2 SW 9 13 5 7 1016.3 1014.2 -
22/07:00am 19.8 19.6 14.6 72 3.1 S 9 11 5 6 1016.2 1014.1 -
22/06:30am 18.1 18.8 14.6 80 2.1 N 4 7 2 4 1015.4 1013.2 -
22/06:00am 16.4 16.5 13.9 85 1.4 NNE 6 7 3 4 1015.1 1012.9 -
22/05:30am 16.5 16.1 14.0 85 1.4 SW 9 17 5 9 1015.6 1013.4 -
22/05:00am 16.3 16.2 13.8 85 1.4 WSW 7 20 4 11 1015.5 1013.3 -
22/04:30am 16.2 15.6 13.5 84 1.5 ENE 9 11 5 6 1015.0 1012.8 -
22/04:00am 16.2 15.7 13.7 85 1.4 ENE 9 13 5 7 1015.2 1013.0 -
22/03:30am 16.4 15.8 13.5 83 1.7 ENE 9 11 5 6 1015.1 1012.9 -
22/03:00am 16.8 16.2 13.5 81 1.9 ENE 9 11 5 6 1015.1 1012.9 0.0
22/02:30am 17.0 16.8 13.7 81 1.9 ENE 7 13 4 7 1015.0 1012.8 -
22/02:00am 17.2 16.4 13.9 81 1.9 E 11 13 6 7 1014.5 1012.4 -
22/01:30am 17.6 16.3 13.7 78 2.2 E 13 15 7 8 1014.6 1012.5 -
22/01:00am 18.1 16.8 13.8 76 2.5 ENE 13 15 7 8 1014.9 1012.7 -
22/12:30am 18.5 17.4 14.2 76 2.5 E 13 17 7 9 1015.5 1013.3 -
22/12:00am 19.0 16.8 14.3 74 2.8 ENE 19 22 10 12 1015.8 1013.7 -
 
Date/Time
EST
Temp
°C
App
Temp
°C
Dew
Point
°C
Rel
Hum
%
Delta-T
°C
Wind Press
QNH
hPa
Press
MSL
hPa
Rain since
9am
mm
Dir  Spd
km/h
Gust
km/h
Spd
kts
Gust
kts
21/11:30pm 19.0 17.2 14.5 75 2.6 ENE 17 20 9 11 1016.0 1013.9 -
21/11:00pm 19.3 17.0 14.6 74 2.8 E 20 28 11 15 1015.9 1013.8 -
21/10:30pm 19.8 17.2 14.8 73 3.0 E 22 26 12 14 1016.0 1013.9 -
21/10:00pm 20.3 17.6 14.7 70 3.3 ENE 22 30 12 16 1016.2 1014.1 -
21/09:30pm 20.7 18.4 14.6 68 3.6 ENE 20 30 11 16 1015.9 1013.8 -
21/09:00pm 21.2 19.0 14.8 67 3.8 ENE 20 28 11 15 1015.5 1013.3 0.0
21/08:30pm 21.9 19.3 15.0 65 4.1 ENE 22 30 12 16 1015.0 1012.8 -
21/08:00pm 22.5 20.0 15.1 63 4.5 ENE 22 28 12 15 1014.5 1012.4 -
21/07:30pm 23.2 20.5 14.5 58 5.2 ENE 22 30 12 16 1014.4 1012.3 -
21/07:00pm 23.9 21.5 14.3 55 5.7 ENE 20 26 11 14 1014.4 1012.3 -
21/06:30pm 24.9 22.1 14.4 52 6.3 ENE 22 30 12 16 1014.4 1012.3 -
21/06:00pm 25.7 22.9 14.2 49 6.9 ENE 22 26 12 14 1014.2 1012.1 -
21/05:30pm 25.9 23.1 14.4 49 7.0 E 22 30 12 16 1014.3 1012.2 -
21/05:00pm 26.7 24.4 14.1 46 7.6 ENE 19 28 10 15 1014.1 1012.0 -
21/04:30pm 26.8 24.4 14.5 46 7.5 ENE 20 30 11 16 1014.2 1012.1 -
21/04:00pm 26.5 24.8 13.6 45 7.7 E 15 24 8 13 1014.4 1012.3 -
21/03:30pm 27.1 24.7 13.8 44 8.0 E 19 24 10 13 1014.5 1012.4 -
21/03:00pm 27.3 26.3 14.7 46 7.7 ESE 13 22 7 12 1015.1 1012.9 -
21/02:30pm 26.9 25.4 14.3 46 7.6 ENE 15 24 8 13 1015.5 1013.3 -
21/02:00pm 26.6 24.4 13.3 43 7.9 E 17 24 9 13 1015.9 1013.8 -
21/01:30pm 26.6 24.6 14.0 46 7.6 NE 17 28 9 15 1016.2 1014.1 -
21/01:00pm 26.4 25.4 14.5 48 7.2 ENE 13 24 7 13 1016.5 1014.4 -
21/12:30pm 25.6 24.3 13.8 48 7.1 ENE 13 24 7 13 1017.0 1014.9 -
21/12:00pm 25.1 22.7 13.9 49 6.7 NE 19 26 10 14 1017.4 1015.3 -
21/11:30am 24.9 23.6 13.8 50 6.6 ENE 13 22 7 12 1018.0 1015.8 -
21/11:00am 24.1 22.1 13.9 53 6.1 NNE 17 22 9 12 1018.5 1016.4 -
21/10:30am 24.2 21.8 14.3 54 5.9 ENE 20 28 11 15 1018.9 1016.8 -
21/09:30am 23.5 - 14.8 58 5.2 - - - - - 1019.0 1016.9 -
21/09:00am 22.7 19.7 14.8 61 4.7 E 24 33 13 18 1019.1 1017.0 0.0
21/08:30am 21.9 19.3 15.0 65 4.1 ENE 22 32 12 17 1019.2 1017.1 0.0
21/08:00am 21.3 19.8 15.2 68 3.7 ENE 17 28 9 15 1019.1 1017.0 0.0
21/07:30am 21.0 18.6 15.3 70 3.4 ENE 22 30 12 16 1019.1 1017.0 0.0
21/07:00am 20.4 18.0 15.4 73 3.0 E 22 30 12 16 1018.9 1016.8 0.0
21/06:30am 19.3 17.8 15.4 78 2.3 E 17 22 9 12 1018.6 1016.5 0.0
21/06:00am 18.7 17.2 15.2 80 2.1 E 17 22 9 12 1018.3 1016.1 0.0
21/05:30am 18.4 16.8 14.9 80 2.1 E 17 20 9 11 1018.0 1015.8 0.0
21/05:00am 17.9 17.0 14.8 82 1.8 E 13 15 7 8 1017.7 1015.6 0.0
21/04:30am 17.9 16.5 14.6 81 1.9 ESE 15 17 8 9 1017.3 1015.2 0.0
21/04:00am 18.4 16.3 14.7 79 2.2 E 19 26 10 14 1016.9 1014.8 0.0
21/03:30am 18.3 16.6 14.6 79 2.2 E 17 20 9 11 1016.8 1014.7 0.0
21/03:00am 18.3 16.9 14.6 79 2.2 E 15 19 8 10 1016.8 1014.7 0.0
21/02:30am 18.5 16.7 14.4 77 2.4 E 17 24 9 13 1016.9 1014.8 0.0
21/02:00am 18.5 16.9 14.0 75 2.6 E 15 19 8 10 1016.8 1014.7 0.0
21/01:30am 19.3 17.0 14.1 72 3.0 E 19 24 10 13 1017.1 1015.0 0.0
21/01:00am 19.5 17.0 14.1 71 3.2 E 20 28 11 15 1017.1 1015.0 0.0
21/12:30am 19.7 16.1 14.3 71 3.2 E 26 33 14 18 1017.3 1015.2 0.0
21/12:00am 19.9 16.8 14.5 71 3.2 ENE 24 32 13 17 1017.5 1015.4 0.0
 
Date/Time
EST
Temp
°C
App
Temp
°C
Dew
Point
°C
Rel
Hum
%
Delta-T
°C
Wind Press
QNH
hPa
Press
MSL
hPa
Rain since
9am
mm
Dir  Spd
km/h
Gust
km/h
Spd
kts
Gust
kts
20/11:30pm 20.1 17.0 14.5 70 3.3 ENE 24 33 13 18 1017.9 1015.7 0.0
20/11:00pm 20.5 17.5 14.8 70 3.4 ENE 24 32 13 17 1018.1 1015.9 0.0
20/10:30pm 20.6 18.6 15.4 72 3.1 ENE 20 30 11 16 1018.3 1016.1 0.0
20/10:00pm 20.8 17.3 15.4 71 3.2 ENE 28 35 15 19 1018.3 1016.1 0.0
20/09:30pm 21.2 18.0 15.3 69 3.6 ENE 26 35 14 19 1018.2 1016.0 0.0
20/09:00pm 21.5 18.4 15.6 69 3.6 ENE 26 33 14 18 1017.9 1015.7 0.0
20/08:30pm 22.0 19.0 15.8 68 3.8 ENE 26 35 14 19 1017.9 1015.7 0.0
20/08:00pm 22.7 20.1 16.0 66 4.1 ENE 24 35 13 19 1017.7 1015.6 0.0
20/07:30pm 23.4 20.5 16.2 64 4.4 ENE 26 33 14 18 1017.2 1015.1 0.0
20/07:00pm 24.0 20.3 16.0 61 4.9 ENE 30 43 16 23 1016.7 1014.6 0.0
20/06:30pm 25.4 21.0 15.7 55 6.0 ENE 33 46 18 25 1016.2 1014.1 0.0
20/06:00pm 26.9 22.7 15.6 50 7.0 ENE 32 41 17 22 1015.8 1013.7 0.0
20/05:30pm 27.8 23.4 14.1 43 8.3 ENE 30 37 16 20 1015.4 1013.2 0.0
20/05:00pm 29.0 25.1 13.2 37 9.5 E 26 35 14 19 1015.1 1012.9 0.0
20/04:30pm 29.7 26.4 13.9 38 9.6 ESE 24 39 13 21 1015.0 1012.8 0.0
20/04:00pm 29.8 26.1 14.0 38 9.6 ESE 26 35 14 19 1015.2 1013.0 0.0
20/03:30pm 29.8 27.1 15.5 42 8.9 ENE 24 35 13 19 1015.4 1013.2 0.0
20/03:00pm 28.7 24.3 14.1 40 8.9 ENE 30 41 16 22 1015.7 1013.5 0.0
20/02:30pm 30.1 27.0 14.6 39 9.6 ESE 24 32 13 17 1016.0 1013.9 0.0
20/02:00pm 29.4 26.4 13.6 38 9.6 ENE 22 30 12 16 1016.2 1014.1 0.0
20/01:30pm 28.7 25.4 14.1 40 8.9 ENE 24 35 13 19 1016.6 1014.5 0.0
20/01:00pm 29.1 26.6 15.2 42 8.6 E 22 33 12 18 1017.0 1014.9 0.0
20/12:30pm 28.8 25.9 15.0 43 8.5 E 24 39 13 21 1017.3 1015.2 0.0
20/12:00pm 28.2 24.8 14.8 44 8.2 ENE 26 39 14 21 1017.9 1015.7 0.0
20/11:30am 28.3 25.1 15.2 44 8.1 ENE 26 37 14 20 1018.2 1016.0 0.0
20/11:00am 28.0 25.3 15.6 46 7.7 E 24 35 13 19 1018.6 1016.5 0.0
20/10:30am 27.3 23.7 15.3 48 7.4 ENE 28 37 15 20 1018.8 1016.7 0.0
20/10:00am 26.4 22.7 15.1 49 6.9 ENE 28 33 15 18 1019.0 1016.9 0.0
20/09:30am 26.2 22.1 15.9 53 6.4 E 32 41 17 22 1019.0 1016.9 0.0
20/09:00am 25.4 22.2 16.3 57 5.7 E 28 33 15 18 1019.1 1017.0 0.2
20/08:30am 24.5 20.5 16.2 60 5.1 E 32 43 17 23 1019.2 1017.1 0.2
20/08:00am 23.7 19.4 16.0 62 4.7 E 33 44 18 24 1019.1 1017.0 0.2
20/07:30am 23.2 20.3 17.0 68 3.9 E 28 37 15 20 1018.9 1016.8 0.2
20/07:00am 21.6 20.8 17.0 75 2.8 E 17 20 9 11 1018.8 1016.7 0.2
20/06:30am 20.7 21.0 16.9 79 2.3 ESE 11 13 6 7 1018.5 1016.4 0.2
20/06:00am 19.6 20.2 16.8 84 1.7 SE 9 13 5 7 1018.1 1015.9 0.2
20/05:30am 19.0 19.1 16.4 85 1.6 SE 11 13 6 7 1017.5 1015.4 0.2
20/05:00am 19.0 18.3 16.4 85 1.6 SE 15 17 8 9 1017.1 1015.0 0.2
20/04:30am 19.2 18.9 16.4 84 1.7 SE 13 15 7 8 1016.7 1014.6 0.2
20/04:00am 19.0 18.9 16.0 83 1.8 SE 11 13 6 7 1016.5 1014.4 0.2
20/03:30am 19.4 19.0 16.1 81 2.0 ESE 13 15 7 8 1016.3 1014.2 0.2
20/03:00am 19.6 18.7 15.9 79 2.2 ESE 15 20 8 11 1016.1 1014.0 0.2
20/02:30am 19.9 18.7 16.0 78 2.4 ESE 17 19 9 10 1016.0 1013.9 0.2
20/02:00am 20.3 19.0 15.9 76 2.7 E 17 20 9 11 1016.1 1014.0 0.2
20/01:30am 20.8 18.9 15.8 73 3.0 E 20 24 11 13 1016.2 1014.1 0.2
20/01:00am 21.4 19.6 15.9 71 3.3 E 20 28 11 15 1016.3 1014.2 0.2
20/12:30am 22.0 19.5 16.1 69 3.6 E 24 28 13 15 1016.3 1014.2 0.2
20/12:00am 22.1 20.5 16.6 71 3.4 E 20 24 11 13 1016.4 1014.3 0.2
 
Date/Time
EST
Temp
°C
App
Temp
°C
Dew
Point
°C
Rel
Hum
%
Delta-T
°C
Wind Press
QNH
hPa
Press
MSL
hPa
Rain since
9am
mm
Dir  Spd
km/h
Gust
km/h
Spd
kts
Gust
kts
19/11:30pm 22.6 20.9 17.1 71 3.4 E 22 30 12 16 1016.4 1014.3 0.2
19/11:00pm 23.2 21.2 17.4 70 3.6 ENE 24 32 13 17 1016.2 1014.1 0.2
19/10:30pm 23.7 20.8 17.0 66 4.2 ENE 28 37 15 20 1016.0 1013.9 0.2
19/10:00pm 24.1 22.2 16.6 63 4.7 ENE 22 32 12 17 1016.0 1013.9 0.2
19/09:30pm 24.5 23.7 16.0 59 5.2 ENE 15 17 8 9 1015.5 1013.3 0.2
19/09:00pm 24.7 23.3 14.5 53 6.1 SE 15 19 8 10 1015.3 1013.1 0.2
19/08:30pm 25.5 24.3 11.7 42 8.0 SSE 9 11 5 6 1015.1 1012.9 0.2
19/08:00pm 25.7 24.9 12.9 45 7.5 S 9 11 5 6 1014.6 1012.5 0.2
19/07:30pm 26.2 25.7 12.6 43 8.0 S 7 9 4 5 1014.4 1012.3 0.2
19/07:00pm 27.3 25.5 9.6 33 10.0 S 9 11 5 6 1014.2 1012.1 0.2
19/06:30pm 29.0 26.9 9.7 30 11.0 S 11 13 6 7 1014.0 1011.9 0.2
19/06:00pm 29.6 26.3 8.1 26 11.9 SSE 15 22 8 12 1013.7 1011.6 0.2
19/05:30pm 30.0 27.4 9.5 28 11.7 S 13 20 7 11 1013.2 1011.1 0.2
19/05:00pm 29.9 27.0 10.9 31 11.1 S 17 22 9 12 1013.0 1010.8 0.2
19/04:30pm 30.1 28.1 11.6 32 10.9 S 13 26 7 14 1012.9 1010.7 0.2
19/04:00pm 29.7 27.6 13.5 37 9.8 SSE 17 22 9 12 1012.9 1010.7 0.2
19/03:30pm 28.8 26.5 13.1 38 9.4 S 17 24 9 13 1013.0 1010.8 0.2
19/03:00pm 29.9 29.0 14.8 39 9.3 SSE 13 22 7 12 1013.2 1011.1 0.2
19/02:30pm 28.9 26.5 13.9 39 9.1 S 19 26 10 14 1013.6 1011.5 0.2
19/02:00pm 28.7 27.6 15.2 43 8.4 S 15 20 8 11 1013.8 1011.7 0.2
19/01:30pm 28.1 26.6 16.4 49 7.4 S 19 26 10 14 1014.2 1012.1 0.2
19/01:00pm 27.4 25.5 15.1 47 7.6 SSW 19 37 10 20 1014.3 1012.2 0.2
19/12:30pm 27.1 25.5 16.1 51 6.9 SSW 19 30 10 16 1014.6 1012.5 0.2
19/12:00pm 26.4 26.9 18.3 61 5.2 SSE 13 20 7 11 1015.0 1012.8 0.2
19/11:30am 25.7 26.3 17.6 61 5.1 SSW 11 17 6 9 1015.4 1013.2 0.2
19/11:00am 24.5 24.3 16.7 61 4.9 SSW 13 20 7 11 1015.7 1013.5 0.2
19/10:30am 23.7 23.4 17.4 68 4.0 SSW 15 20 8 11 1015.9 1013.8 0.2
19/10:00am 23.3 23.3 18.0 72 3.4 SW 15 20 8 11 1016.0 1013.9 0.2
19/09:30am 22.9 23.1 17.6 72 3.3 SW 13 19 7 10 1016.1 1014.0 0.0
19/09:00am 21.6 21.5 17.0 75 2.9 WSW 13 17 7 9 1016.1 1014.0 39.8
19/08:30am 21.7 22.8 18.1 80 2.3 WSW 9 15 5 8 1016.2 1014.1 39.8

Other formats

Comma delimited format used in spreadsheet applications
http://www.bom.gov.au/fwo/IDQ60801/IDQ60801.94542.axf

JavaScript Object Notation format (JSON) in row-major order
http://www.bom.gov.au/fwo/IDQ60801/IDQ60801.94542.json

Data quality

Most of these data are generated automatically and are frequently updated. Quality checks on data are not normally performed. It is possible for incorrect values to appear. Refer to information at About Latest Weather Observations and please check the disclaimer before using these data.